sensor_id;sensor_type;location;lat;lon;timestamp;P1;durP1;ratioP1;P2;durP2;ratioP2
813;SDS011;389;48.710;9.392;2023-04-08T00:01:09;16.77;;;9.50;;
813;SDS011;389;48.710;9.392;2023-04-08T00:03:35;15.17;;;9.20;;
813;SDS011;389;48.710;9.392;2023-04-08T00:06:01;15.60;;;9.37;;
813;SDS011;389;48.710;9.392;2023-04-08T00:08:29;14.60;;;9.13;;
813;SDS011;389;48.710;9.392;2023-04-08T00:10:54;14.90;;;9.37;;
813;SDS011;389;48.710;9.392;2023-04-08T00:13:20;13.20;;;9.10;;
813;SDS011;389;48.710;9.392;2023-04-08T00:15:46;18.30;;;9.70;;
813;SDS011;389;48.710;9.392;2023-04-08T00:18:13;18.10;;;9.53;;
813;SDS011;389;48.710;9.392;2023-04-08T00:20:39;15.90;;;9.40;;
813;SDS011;389;48.710;9.392;2023-04-08T00:23:06;15.13;;;9.63;;
813;SDS011;389;48.710;9.392;2023-04-08T00:25:31;16.40;;;9.53;;
813;SDS011;389;48.710;9.392;2023-04-08T00:27:57;13.93;;;9.77;;
813;SDS011;389;48.710;9.392;2023-04-08T00:30:27;14.10;;;8.80;;
813;SDS011;389;48.710;9.392;2023-04-08T00:32:54;17.10;;;10.23;;
813;SDS011;389;48.710;9.392;2023-04-08T00:35:19;15.37;;;9.57;;
813;SDS011;389;48.710;9.392;2023-04-08T00:37:45;15.90;;;9.93;;
813;SDS011;389;48.710;9.392;2023-04-08T00:43:15;15.47;;;9.17;;
813;SDS011;389;48.710;9.392;2023-04-08T00:45:44;13.40;;;9.37;;
813;SDS011;389;48.710;9.392;2023-04-08T00:48:18;14.43;;;9.10;;
813;SDS011;389;48.710;9.392;2023-04-08T00:50:44;14.63;;;9.40;;
813;SDS011;389;48.710;9.392;2023-04-08T00:53:11;13.93;;;8.80;;
813;SDS011;389;48.710;9.392;2023-04-08T00:55:41;17.60;;;9.83;;
813;SDS011;389;48.710;9.392;2023-04-08T00:58:07;16.57;;;8.80;;
813;SDS011;389;48.710;9.392;2023-04-08T01:00:32;14.83;;;9.63;;
813;SDS011;389;48.710;9.392;2023-04-08T01:03:23;18.63;;;9.80;;
813;SDS011;389;48.710;9.392;2023-04-08T01:06:21;16.87;;;9.40;;
813;SDS011;389;48.710;9.392;2023-04-08T01:08:51;18.63;;;10.20;;
813;SDS011;389;48.710;9.392;2023-04-08T01:11:17;16.07;;;10.23;;
813;SDS011;389;48.710;9.392;2023-04-08T01:13:44;17.73;;;10.50;;
813;SDS011;389;48.710;9.392;2023-04-08T01:16:14;17.43;;;10.17;;
813;SDS011;389;48.710;9.392;2023-04-08T01:18:41;15.40;;;9.57;;
813;SDS011;389;48.710;9.392;2023-04-08T01:21:08;17.20;;;10.20;;
813;SDS011;389;48.710;9.392;2023-04-08T01:26:19;19.00;;;11.40;;
813;SDS011;389;48.710;9.392;2023-04-08T01:28:46;16.30;;;9.63;;
813;SDS011;389;48.710;9.392;2023-04-08T01:31:14;15.60;;;9.63;;
813;SDS011;389;48.710;9.392;2023-04-08T01:33:43;18.33;;;10.47;;
813;SDS011;389;48.710;9.392;2023-04-08T01:36:10;18.57;;;10.70;;
813;SDS011;389;48.710;9.392;2023-04-08T01:38:37;18.80;;;10.40;;
813;SDS011;389;48.710;9.392;2023-04-08T01:41:03;18.93;;;11.20;;
813;SDS011;389;48.710;9.392;2023-04-08T01:43:30;16.83;;;10.53;;
813;SDS011;389;48.710;9.392;2023-04-08T01:45:59;16.30;;;10.40;;
813;SDS011;389;48.710;9.392;2023-04-08T01:48:25;18.53;;;11.20;;
813;SDS011;389;48.710;9.392;2023-04-08T01:50:52;15.57;;;9.90;;
813;SDS011;389;48.710;9.392;2023-04-08T01:53:20;20.50;;;10.57;;
813;SDS011;389;48.710;9.392;2023-04-08T01:55:46;16.77;;;10.13;;
813;SDS011;389;48.710;9.392;2023-04-08T01:58:17;16.60;;;9.60;;
813;SDS011;389;48.710;9.392;2023-04-08T02:00:45;17.50;;;10.30;;
813;SDS011;389;48.710;9.392;2023-04-08T02:03:11;18.13;;;10.63;;
813;SDS011;389;48.710;9.392;2023-04-08T02:05:38;18.33;;;10.00;;
813;SDS011;389;48.710;9.392;2023-04-08T02:08:04;14.53;;;9.97;;
813;SDS011;389;48.710;9.392;2023-04-08T02:10:30;19.10;;;10.90;;
813;SDS011;389;48.710;9.392;2023-04-08T02:12:57;17.47;;;10.60;;
813;SDS011;389;48.710;9.392;2023-04-08T02:15:22;15.60;;;9.60;;
813;SDS011;389;48.710;9.392;2023-04-08T02:17:54;16.47;;;10.60;;
813;SDS011;389;48.710;9.392;2023-04-08T02:20:23;16.70;;;10.00;;
813;SDS011;389;48.710;9.392;2023-04-08T02:23:04;16.00;;;10.40;;
813;SDS011;389;48.710;9.392;2023-04-08T02:25:36;17.83;;;11.30;;
813;SDS011;389;48.710;9.392;2023-04-08T02:28:05;17.50;;;11.27;;
813;SDS011;389;48.710;9.392;2023-04-08T02:30:34;19.77;;;11.73;;
813;SDS011;389;48.710;9.392;2023-04-08T02:33:02;18.53;;;11.67;;
813;SDS011;389;48.710;9.392;2023-04-08T02:35:29;19.90;;;11.33;;
813;SDS011;389;48.710;9.392;2023-04-08T02:40:41;16.40;;;10.50;;
813;SDS011;389;48.710;9.392;2023-04-08T02:43:07;16.90;;;11.10;;
813;SDS011;389;48.710;9.392;2023-04-08T02:45:34;17.63;;;10.10;;
813;SDS011;389;48.710;9.392;2023-04-08T02:48:06;16.10;;;10.63;;
813;SDS011;389;48.710;9.392;2023-04-08T02:50:31;16.70;;;10.90;;
813;SDS011;389;48.710;9.392;2023-04-08T02:52:57;16.67;;;10.57;;
813;SDS011;389;48.710;9.392;2023-04-08T02:55:22;18.27;;;10.80;;
813;SDS011;389;48.710;9.392;2023-04-08T04:54:13;19.77;;;12.10;;
813;SDS011;389;48.710;9.392;2023-04-08T04:56:38;26.27;;;13.40;;
813;SDS011;389;48.710;9.392;2023-04-08T04:59:04;19.77;;;11.93;;
813;SDS011;389;48.710;9.392;2023-04-08T05:01:30;26.87;;;12.90;;
813;SDS011;389;48.710;9.392;2023-04-08T05:03:56;25.43;;;13.80;;
813;SDS011;389;48.710;9.392;2023-04-08T05:06:22;25.70;;;13.93;;
813;SDS011;389;48.710;9.392;2023-04-08T05:08:48;26.50;;;14.23;;
813;SDS011;389;48.710;9.392;2023-04-08T05:11:15;23.93;;;13.10;;
813;SDS011;389;48.710;9.392;2023-04-08T05:13:42;28.23;;;14.00;;
813;SDS011;389;48.710;9.392;2023-04-08T05:16:08;24.13;;;13.37;;
813;SDS011;389;48.710;9.392;2023-04-08T05:18:34;25.87;;;13.47;;
813;SDS011;389;48.710;9.392;2023-04-08T05:21:00;24.70;;;14.20;;
813;SDS011;389;48.710;9.392;2023-04-08T05:23:26;24.13;;;13.33;;
813;SDS011;389;48.710;9.392;2023-04-08T05:25:52;26.93;;;13.90;;
813;SDS011;389;48.710;9.392;2023-04-08T05:28:17;24.90;;;13.37;;
813;SDS011;389;48.710;9.392;2023-04-08T05:30:47;21.27;;;13.23;;
813;SDS011;389;48.710;9.392;2023-04-08T05:33:14;25.50;;;14.30;;
813;SDS011;389;48.710;9.392;2023-04-08T05:35:40;24.10;;;12.67;;
813;SDS011;389;48.710;9.392;2023-04-08T05:38:06;27.73;;;13.50;;
813;SDS011;389;48.710;9.392;2023-04-08T05:40:31;24.63;;;12.23;;
813;SDS011;389;48.710;9.392;2023-04-08T05:42:57;24.43;;;13.20;;
813;SDS011;389;48.710;9.392;2023-04-08T05:45:22;26.30;;;12.47;;
813;SDS011;389;48.710;9.392;2023-04-08T05:47:48;21.63;;;12.40;;
813;SDS011;389;48.710;9.392;2023-04-08T05:50:13;20.60;;;13.30;;
813;SDS011;389;48.710;9.392;2023-04-08T05:52:43;23.70;;;12.57;;
813;SDS011;389;48.710;9.392;2023-04-08T05:55:09;24.03;;;12.27;;
813;SDS011;389;48.710;9.392;2023-04-08T05:57:36;24.37;;;12.50;;
813;SDS011;389;48.710;9.392;2023-04-08T06:00:02;23.10;;;12.63;;
813;SDS011;389;48.710;9.392;2023-04-08T06:02:32;28.63;;;15.57;;
813;SDS011;389;48.710;9.392;2023-04-08T06:04:58;21.10;;;12.20;;
813;SDS011;389;48.710;9.392;2023-04-08T06:07:24;19.13;;;11.23;;
813;SDS011;389;48.710;9.392;2023-04-08T06:09:49;23.67;;;12.67;;
813;SDS011;389;48.710;9.392;2023-04-08T06:12:15;21.83;;;11.83;;
813;SDS011;389;48.710;9.392;2023-04-08T06:14:41;22.07;;;12.00;;
813;SDS011;389;48.710;9.392;2023-04-08T06:17:06;25.60;;;12.70;;
813;SDS011;389;48.710;9.392;2023-04-08T06:19:32;24.37;;;14.47;;
813;SDS011;389;48.710;9.392;2023-04-08T06:21:57;22.37;;;12.90;;
813;SDS011;389;48.710;9.392;2023-04-08T06:24:24;24.10;;;12.77;;
813;SDS011;389;48.710;9.392;2023-04-08T06:26:51;22.77;;;13.20;;
813;SDS011;389;48.710;9.392;2023-04-08T06:29:17;23.70;;;12.07;;
813;SDS011;389;48.710;9.392;2023-04-08T06:31:44;24.27;;;13.47;;
813;SDS011;389;48.710;9.392;2023-04-08T06:34:10;24.83;;;13.20;;
813;SDS011;389;48.710;9.392;2023-04-08T06:36:35;19.87;;;12.30;;
813;SDS011;389;48.710;9.392;2023-04-08T06:39:01;24.80;;;12.40;;
813;SDS011;389;48.710;9.392;2023-04-08T06:41:28;23.40;;;13.00;;
813;SDS011;389;48.710;9.392;2023-04-08T06:43:54;21.57;;;12.57;;
813;SDS011;389;48.710;9.392;2023-04-08T06:46:19;26.13;;;14.10;;
813;SDS011;389;48.710;9.392;2023-04-08T06:48:45;23.17;;;12.97;;
813;SDS011;389;48.710;9.392;2023-04-08T06:51:11;19.87;;;12.10;;
813;SDS011;389;48.710;9.392;2023-04-08T06:53:36;20.60;;;12.40;;
813;SDS011;389;48.710;9.392;2023-04-08T06:56:02;18.83;;;11.20;;
813;SDS011;389;48.710;9.392;2023-04-08T06:58:28;18.10;;;10.23;;
813;SDS011;389;48.710;9.392;2023-04-08T07:00:54;20.70;;;12.47;;
813;SDS011;389;48.710;9.392;2023-04-08T07:03:20;17.23;;;10.67;;
813;SDS011;389;48.710;9.392;2023-04-08T07:05:46;18.50;;;11.43;;
813;SDS011;389;48.710;9.392;2023-04-08T07:08:12;20.20;;;11.90;;
813;SDS011;389;48.710;9.392;2023-04-08T07:10:37;18.63;;;10.80;;
813;SDS011;389;48.710;9.392;2023-04-08T07:13:03;17.23;;;10.90;;
813;SDS011;389;48.710;9.392;2023-04-08T07:15:29;17.57;;;9.90;;
813;SDS011;389;48.710;9.392;2023-04-08T07:17:54;15.20;;;8.70;;
813;SDS011;389;48.710;9.392;2023-04-08T07:20:21;16.67;;;9.67;;
813;SDS011;389;48.710;9.392;2023-04-08T07:22:47;14.47;;;9.73;;
813;SDS011;389;48.710;9.392;2023-04-08T07:25:13;15.87;;;9.90;;
813;SDS011;389;48.710;9.392;2023-04-08T07:27:38;16.00;;;10.03;;
813;SDS011;389;48.710;9.392;2023-04-08T07:30:04;16.50;;;9.93;;
813;SDS011;389;48.710;9.392;2023-04-08T07:32:31;18.73;;;9.50;;
813;SDS011;389;48.710;9.392;2023-04-08T07:34:57;15.77;;;9.13;;
813;SDS011;389;48.710;9.392;2023-04-08T07:37:24;15.73;;;9.50;;
813;SDS011;389;48.710;9.392;2023-04-08T07:39:50;15.23;;;9.40;;
813;SDS011;389;48.710;9.392;2023-04-08T07:42:15;14.27;;;9.17;;
813;SDS011;389;48.710;9.392;2023-04-08T07:44:42;19.13;;;10.90;;
813;SDS011;389;48.710;9.392;2023-04-08T07:47:08;14.37;;;10.27;;
813;SDS011;389;48.710;9.392;2023-04-08T07:49:33;18.50;;;9.90;;
813;SDS011;389;48.710;9.392;2023-04-08T07:51:59;16.13;;;10.27;;
813;SDS011;389;48.710;9.392;2023-04-08T07:54:24;14.80;;;9.70;;
813;SDS011;389;48.710;9.392;2023-04-08T07:56:50;11.83;;;8.87;;
813;SDS011;389;48.710;9.392;2023-04-08T07:59:16;15.10;;;10.63;;
813;SDS011;389;48.710;9.392;2023-04-08T08:01:41;14.37;;;9.80;;
813;SDS011;389;48.710;9.392;2023-04-08T08:04:07;14.77;;;9.87;;
813;SDS011;389;48.710;9.392;2023-04-08T08:06:32;18.13;;;11.03;;
813;SDS011;389;48.710;9.392;2023-04-08T08:08:58;20.00;;;11.60;;
813;SDS011;389;48.710;9.392;2023-04-08T08:11:25;17.90;;;11.70;;
813;SDS011;389;48.710;9.392;2023-04-08T08:13:53;17.23;;;9.97;;
813;SDS011;389;48.710;9.392;2023-04-08T08:16:19;16.50;;;11.27;;
813;SDS011;389;48.710;9.392;2023-04-08T08:18:45;15.23;;;10.73;;
813;SDS011;389;48.710;9.392;2023-04-08T08:21:10;14.70;;;10.37;;
813;SDS011;389;48.710;9.392;2023-04-08T08:23:36;16.80;;;11.00;;
813;SDS011;389;48.710;9.392;2023-04-08T08:26:02;20.80;;;12.30;;
813;SDS011;389;48.710;9.392;2023-04-08T08:28:35;20.83;;;12.30;;
813;SDS011;389;48.710;9.392;2023-04-08T08:31:03;19.37;;;10.63;;
813;SDS011;389;48.710;9.392;2023-04-08T08:33:29;18.50;;;11.37;;
813;SDS011;389;48.710;9.392;2023-04-08T08:35:55;16.20;;;11.10;;
813;SDS011;389;48.710;9.392;2023-04-08T08:38:22;18.93;;;12.07;;
813;SDS011;389;48.710;9.392;2023-04-08T08:40:52;16.53;;;11.63;;
813;SDS011;389;48.710;9.392;2023-04-08T08:43:19;15.03;;;10.30;;
813;SDS011;389;48.710;9.392;2023-04-08T08:45:45;19.43;;;11.70;;
813;SDS011;389;48.710;9.392;2023-04-08T08:48:11;15.03;;;11.03;;
813;SDS011;389;48.710;9.392;2023-04-08T08:50:36;16.10;;;11.23;;
813;SDS011;389;48.710;9.392;2023-04-08T08:53:02;15.93;;;11.77;;
813;SDS011;389;48.710;9.392;2023-04-08T08:55:30;17.40;;;11.80;;
813;SDS011;389;48.710;9.392;2023-04-08T08:57:57;21.10;;;13.63;;
813;SDS011;389;48.710;9.392;2023-04-08T09:00:31;17.80;;;12.10;;
813;SDS011;389;48.710;9.392;2023-04-08T09:03:17;15.37;;;11.60;;
813;SDS011;389;48.710;9.392;2023-04-08T09:05:51;15.20;;;11.17;;
813;SDS011;389;48.710;9.392;2023-04-08T09:08:39;17.07;;;12.47;;
813;SDS011;389;48.710;9.392;2023-04-08T09:11:11;16.23;;;11.73;;
813;SDS011;389;48.710;9.392;2023-04-08T09:13:41;16.77;;;12.00;;
813;SDS011;389;48.710;9.392;2023-04-08T09:16:09;14.43;;;11.23;;
813;SDS011;389;48.710;9.392;2023-04-08T09:18:36;16.83;;;11.77;;
813;SDS011;389;48.710;9.392;2023-04-08T09:21:03;16.87;;;11.50;;
813;SDS011;389;48.710;9.392;2023-04-08T09:23:43;15.67;;;11.50;;
813;SDS011;389;48.710;9.392;2023-04-08T09:26:20;16.60;;;11.97;;
813;SDS011;389;48.710;9.392;2023-04-08T09:31:33;17.07;;;12.30;;
813;SDS011;389;48.710;9.392;2023-04-08T09:34:15;15.20;;;11.80;;
813;SDS011;389;48.710;9.392;2023-04-08T09:36:43;16.97;;;12.40;;
813;SDS011;389;48.710;9.392;2023-04-08T09:39:09;16.20;;;12.13;;
813;SDS011;389;48.710;9.392;2023-04-08T09:41:36;15.17;;;12.37;;
813;SDS011;389;48.710;9.392;2023-04-08T09:44:03;14.93;;;11.50;;
813;SDS011;389;48.710;9.392;2023-04-08T09:49:12;14.83;;;11.23;;
813;SDS011;389;48.710;9.392;2023-04-08T09:51:56;17.37;;;12.10;;
813;SDS011;389;48.710;9.392;2023-04-08T09:54:25;17.10;;;12.30;;
813;SDS011;389;48.710;9.392;2023-04-08T09:57:04;14.70;;;11.57;;
813;SDS011;389;48.710;9.392;2023-04-08T09:59:33;16.70;;;12.77;;
813;SDS011;389;48.710;9.392;2023-04-08T10:02:04;14.20;;;11.90;;
813;SDS011;389;48.710;9.392;2023-04-08T10:04:34;15.60;;;10.60;;
813;SDS011;389;48.710;9.392;2023-04-08T10:07:03;14.90;;;11.70;;
813;SDS011;389;48.710;9.392;2023-04-08T10:09:31;15.57;;;11.90;;
813;SDS011;389;48.710;9.392;2023-04-08T10:11:58;18.70;;;13.27;;
813;SDS011;389;48.710;9.392;2023-04-08T10:14:25;14.37;;;12.40;;
813;SDS011;389;48.710;9.392;2023-04-08T10:17:38;17.50;;;13.27;;
813;SDS011;389;48.710;9.392;2023-04-08T10:19:54;16.00;;;12.90;;
813;SDS011;389;48.710;9.392;2023-04-08T10:25:26;16.57;;;12.87;;
813;SDS011;389;48.710;9.392;2023-04-08T10:27:39;16.13;;;11.97;;
813;SDS011;389;48.710;9.392;2023-04-08T10:30:37;15.07;;;12.30;;
813;SDS011;389;48.710;9.392;2023-04-08T10:32:55;18.87;;;12.97;;
813;SDS011;389;48.710;9.392;2023-04-08T10:35:30;15.33;;;11.40;;
813;SDS011;389;48.710;9.392;2023-04-08T10:37:58;14.93;;;12.40;;
813;SDS011;389;48.710;9.392;2023-04-08T10:40:25;17.60;;;13.50;;
813;SDS011;389;48.710;9.392;2023-04-08T10:42:54;15.97;;;12.43;;
813;SDS011;389;48.710;9.392;2023-04-08T10:45:20;16.80;;;12.70;;
813;SDS011;389;48.710;9.392;2023-04-08T10:47:46;15.70;;;12.40;;
813;SDS011;389;48.710;9.392;2023-04-08T10:50:12;16.90;;;12.83;;
813;SDS011;389;48.710;9.392;2023-04-08T10:52:49;15.20;;;11.63;;
813;SDS011;389;48.710;9.392;2023-04-08T10:55:23;15.47;;;12.00;;
813;SDS011;389;48.710;9.392;2023-04-08T10:57:50;16.83;;;11.93;;
813;SDS011;389;48.710;9.392;2023-04-08T11:00:16;17.17;;;11.57;;
813;SDS011;389;48.710;9.392;2023-04-08T11:02:43;17.20;;;12.80;;
813;SDS011;389;48.710;9.392;2023-04-08T11:05:09;16.57;;;11.97;;
813;SDS011;389;48.710;9.392;2023-04-08T11:07:41;15.70;;;11.73;;
813;SDS011;389;48.710;9.392;2023-04-08T11:10:07;16.17;;;11.67;;
813;SDS011;389;48.710;9.392;2023-04-08T11:12:33;18.43;;;12.30;;
813;SDS011;389;48.710;9.392;2023-04-08T11:15:01;15.20;;;11.70;;
813;SDS011;389;48.710;9.392;2023-04-08T11:17:27;17.43;;;11.47;;
813;SDS011;389;48.710;9.392;2023-04-08T11:19:54;18.50;;;11.90;;
813;SDS011;389;48.710;9.392;2023-04-08T11:22:19;13.93;;;11.33;;
813;SDS011;389;48.710;9.392;2023-04-08T11:24:45;14.00;;;10.97;;
813;SDS011;389;48.710;9.392;2023-04-08T11:27:11;14.07;;;10.73;;
813;SDS011;389;48.710;9.392;2023-04-08T11:29:37;13.30;;;9.57;;
813;SDS011;389;48.710;9.392;2023-04-08T11:32:03;14.60;;;10.20;;
813;SDS011;389;48.710;9.392;2023-04-08T11:34:29;15.10;;;10.20;;
813;SDS011;389;48.710;9.392;2023-04-08T11:36:55;13.53;;;10.30;;
813;SDS011;389;48.710;9.392;2023-04-08T11:39:22;15.70;;;10.70;;
813;SDS011;389;48.710;9.392;2023-04-08T11:41:48;13.67;;;10.53;;
813;SDS011;389;48.710;9.392;2023-04-08T11:44:14;13.00;;;10.20;;
813;SDS011;389;48.710;9.392;2023-04-08T11:46:40;12.20;;;9.90;;
813;SDS011;389;48.710;9.392;2023-04-08T11:49:06;11.17;;;9.67;;
813;SDS011;389;48.710;9.392;2023-04-08T11:51:33;13.73;;;9.60;;
813;SDS011;389;48.710;9.392;2023-04-08T11:54:00;11.70;;;9.67;;
813;SDS011;389;48.710;9.392;2023-04-08T11:56:29;16.63;;;9.83;;
813;SDS011;389;48.710;9.392;2023-04-08T11:58:57;12.83;;;9.20;;
813;SDS011;389;48.710;9.392;2023-04-08T12:01:23;13.00;;;9.07;;
813;SDS011;389;48.710;9.392;2023-04-08T12:03:55;12.37;;;9.10;;
813;SDS011;389;48.710;9.392;2023-04-08T12:06:21;12.97;;;8.50;;
813;SDS011;389;48.710;9.392;2023-04-08T12:08:48;10.17;;;8.40;;
813;SDS011;389;48.710;9.392;2023-04-08T12:11:13;11.67;;;9.03;;
813;SDS011;389;48.710;9.392;2023-04-08T12:13:40;12.50;;;9.13;;
813;SDS011;389;48.710;9.392;2023-04-08T12:16:06;11.00;;;8.73;;
813;SDS011;389;48.710;9.392;2023-04-08T12:18:31;12.73;;;9.23;;
813;SDS011;389;48.710;9.392;2023-04-08T12:20:57;14.90;;;10.00;;
813;SDS011;389;48.710;9.392;2023-04-08T12:23:23;14.20;;;10.77;;
813;SDS011;389;48.710;9.392;2023-04-08T12:25:48;12.63;;;10.13;;
813;SDS011;389;48.710;9.392;2023-04-08T12:28:14;14.00;;;10.20;;
813;SDS011;389;48.710;9.392;2023-04-08T12:30:39;13.27;;;10.10;;
813;SDS011;389;48.710;9.392;2023-04-08T12:33:05;14.67;;;11.93;;
813;SDS011;389;48.710;9.392;2023-04-08T12:35:31;16.43;;;11.83;;
813;SDS011;389;48.710;9.392;2023-04-08T12:37:56;14.47;;;11.60;;
813;SDS011;389;48.710;9.392;2023-04-08T12:40:22;15.43;;;11.60;;
813;SDS011;389;48.710;9.392;2023-04-08T12:42:47;16.50;;;12.40;;
813;SDS011;389;48.710;9.392;2023-04-08T12:45:13;14.47;;;10.27;;
813;SDS011;389;48.710;9.392;2023-04-08T12:47:39;14.13;;;11.10;;
813;SDS011;389;48.710;9.392;2023-04-08T12:50:05;11.83;;;10.00;;
813;SDS011;389;48.710;9.392;2023-04-08T12:52:30;13.03;;;10.33;;
813;SDS011;389;48.710;9.392;2023-04-08T12:54:57;14.73;;;11.20;;
813;SDS011;389;48.710;9.392;2023-04-08T12:57:22;14.30;;;11.40;;
813;SDS011;389;48.710;9.392;2023-04-08T12:59:48;16.43;;;12.20;;
813;SDS011;389;48.710;9.392;2023-04-08T13:02:13;15.47;;;10.90;;
813;SDS011;389;48.710;9.392;2023-04-08T13:04:39;16.03;;;11.37;;
813;SDS011;389;48.710;9.392;2023-04-08T13:07:04;14.37;;;10.30;;
813;SDS011;389;48.710;9.392;2023-04-08T13:09:31;14.90;;;10.27;;
813;SDS011;389;48.710;9.392;2023-04-08T13:11:57;12.80;;;10.47;;
813;SDS011;389;48.710;9.392;2023-04-08T13:14:23;15.27;;;11.13;;
813;SDS011;389;48.710;9.392;2023-04-08T13:16:49;13.30;;;11.00;;
813;SDS011;389;48.710;9.392;2023-04-08T13:19:14;11.10;;;9.37;;
813;SDS011;389;48.710;9.392;2023-04-08T13:21:40;15.27;;;11.23;;
813;SDS011;389;48.710;9.392;2023-04-08T13:24:05;16.33;;;11.00;;
813;SDS011;389;48.710;9.392;2023-04-08T13:26:31;14.80;;;11.10;;
813;SDS011;389;48.710;9.392;2023-04-08T13:28:56;14.70;;;10.97;;
813;SDS011;389;48.710;9.392;2023-04-08T13:31:22;15.90;;;9.73;;
813;SDS011;389;48.710;9.392;2023-04-08T13:33:48;13.00;;;10.30;;
813;SDS011;389;48.710;9.392;2023-04-08T13:36:13;17.50;;;11.20;;
813;SDS011;389;48.710;9.392;2023-04-08T13:38:39;16.93;;;11.40;;
813;SDS011;389;48.710;9.392;2023-04-08T13:41:04;15.93;;;10.77;;
813;SDS011;389;48.710;9.392;2023-04-08T13:43:30;15.90;;;11.93;;
813;SDS011;389;48.710;9.392;2023-04-08T13:45:56;16.90;;;12.40;;
813;SDS011;389;48.710;9.392;2023-04-08T13:48:22;16.37;;;11.63;;
813;SDS011;389;48.710;9.392;2023-04-08T13:50:48;16.20;;;10.40;;
813;SDS011;389;48.710;9.392;2023-04-08T13:53:13;15.90;;;11.53;;
813;SDS011;389;48.710;9.392;2023-04-08T13:55:39;14.70;;;12.23;;
813;SDS011;389;48.710;9.392;2023-04-08T13:58:05;14.73;;;10.80;;
813;SDS011;389;48.710;9.392;2023-04-08T14:00:30;13.70;;;10.60;;
813;SDS011;389;48.710;9.392;2023-04-08T14:02:56;13.23;;;10.23;;
813;SDS011;389;48.710;9.392;2023-04-08T14:05:22;14.20;;;11.40;;
813;SDS011;389;48.710;9.392;2023-04-08T14:07:47;15.93;;;11.10;;
813;SDS011;389;48.710;9.392;2023-04-08T14:10:13;15.63;;;10.83;;
813;SDS011;389;48.710;9.392;2023-04-08T14:12:40;15.70;;;10.77;;
813;SDS011;389;48.710;9.392;2023-04-08T14:15:06;15.60;;;10.80;;
813;SDS011;389;48.710;9.392;2023-04-08T14:17:32;14.17;;;10.80;;
813;SDS011;389;48.710;9.392;2023-04-08T14:19:59;17.20;;;10.53;;
813;SDS011;389;48.710;9.392;2023-04-08T14:22:25;14.43;;;10.30;;
813;SDS011;389;48.710;9.392;2023-04-08T14:24:51;15.13;;;10.80;;
813;SDS011;389;48.710;9.392;2023-04-08T14:27:17;13.63;;;10.47;;
813;SDS011;389;48.710;9.392;2023-04-08T14:29:42;12.40;;;9.20;;
813;SDS011;389;48.710;9.392;2023-04-08T14:32:08;12.57;;;9.50;;
813;SDS011;389;48.710;9.392;2023-04-08T14:34:33;14.70;;;10.77;;
813;SDS011;389;48.710;9.392;2023-04-08T14:36:59;14.40;;;10.90;;
813;SDS011;389;48.710;9.392;2023-04-08T14:39:24;13.20;;;10.40;;
813;SDS011;389;48.710;9.392;2023-04-08T14:41:51;12.30;;;10.40;;
813;SDS011;389;48.710;9.392;2023-04-08T14:44:16;11.83;;;9.70;;
813;SDS011;389;48.710;9.392;2023-04-08T14:46:42;13.53;;;9.97;;
813;SDS011;389;48.710;9.392;2023-04-08T14:49:07;13.50;;;10.00;;
813;SDS011;389;48.710;9.392;2023-04-08T14:51:33;12.50;;;10.07;;
813;SDS011;389;48.710;9.392;2023-04-08T14:54:01;12.10;;;8.70;;
813;SDS011;389;48.710;9.392;2023-04-08T14:56:27;13.67;;;9.47;;
813;SDS011;389;48.710;9.392;2023-04-08T14:58:52;17.10;;;9.27;;
813;SDS011;389;48.710;9.392;2023-04-08T15:01:18;10.60;;;8.80;;
813;SDS011;389;48.710;9.392;2023-04-08T15:03:43;11.00;;;8.10;;
813;SDS011;389;48.710;9.392;2023-04-08T15:06:10;10.43;;;8.20;;
813;SDS011;389;48.710;9.392;2023-04-08T15:08:40;8.43;;;6.77;;
813;SDS011;389;48.710;9.392;2023-04-08T15:11:07;8.20;;;6.90;;
813;SDS011;389;48.710;9.392;2023-04-08T15:13:32;7.60;;;6.10;;
813;SDS011;389;48.710;9.392;2023-04-08T15:16:00;7.27;;;6.40;;
813;SDS011;389;48.710;9.392;2023-04-08T15:18:26;7.30;;;6.50;;
813;SDS011;389;48.710;9.392;2023-04-08T15:20:51;8.27;;;6.57;;
813;SDS011;389;48.710;9.392;2023-04-08T15:23:17;8.17;;;6.57;;
813;SDS011;389;48.710;9.392;2023-04-08T15:25:43;7.67;;;6.70;;
813;SDS011;389;48.710;9.392;2023-04-08T15:28:08;8.47;;;6.47;;
813;SDS011;389;48.710;9.392;2023-04-08T15:30:34;7.43;;;6.23;;
813;SDS011;389;48.710;9.392;2023-04-08T15:33:03;10.10;;;5.50;;
813;SDS011;389;48.710;9.392;2023-04-08T15:35:29;7.10;;;5.40;;
813;SDS011;389;48.710;9.392;2023-04-08T15:37:55;8.30;;;5.40;;
813;SDS011;389;48.710;9.392;2023-04-08T15:40:21;6.33;;;5.30;;
813;SDS011;389;48.710;9.392;2023-04-08T15:42:46;5.60;;;5.00;;
813;SDS011;389;48.710;9.392;2023-04-08T15:45:12;7.00;;;5.10;;
813;SDS011;389;48.710;9.392;2023-04-08T15:47:37;6.07;;;5.20;;
813;SDS011;389;48.710;9.392;2023-04-08T15:50:03;7.40;;;4.30;;
813;SDS011;389;48.710;9.392;2023-04-08T15:52:29;5.70;;;4.50;;
813;SDS011;389;48.710;9.392;2023-04-08T15:54:56;5.30;;;4.80;;
813;SDS011;389;48.710;9.392;2023-04-08T15:57:21;5.97;;;4.60;;
813;SDS011;389;48.710;9.392;2023-04-08T15:59:50;7.13;;;4.97;;
813;SDS011;389;48.710;9.392;2023-04-08T16:02:17;5.90;;;4.83;;
813;SDS011;389;48.710;9.392;2023-04-08T16:04:43;6.67;;;6.00;;
813;SDS011;389;48.710;9.392;2023-04-08T16:07:09;7.00;;;6.30;;
813;SDS011;389;48.710;9.392;2023-04-08T16:09:34;8.07;;;5.67;;
813;SDS011;389;48.710;9.392;2023-04-08T16:12:00;6.67;;;5.40;;
813;SDS011;389;48.710;9.392;2023-04-08T16:14:26;5.73;;;5.10;;
813;SDS011;389;48.710;9.392;2023-04-08T16:16:52;6.30;;;5.20;;
813;SDS011;389;48.710;9.392;2023-04-08T16:19:17;6.30;;;5.20;;
813;SDS011;389;48.710;9.392;2023-04-08T16:21:45;8.30;;;6.63;;
813;SDS011;389;48.710;9.392;2023-04-08T16:24:10;8.30;;;6.33;;
813;SDS011;389;48.710;9.392;2023-04-08T16:26:36;6.57;;;5.30;;
813;SDS011;389;48.710;9.392;2023-04-08T16:29:01;6.23;;;5.50;;
813;SDS011;389;48.710;9.392;2023-04-08T16:31:27;5.57;;;5.07;;
813;SDS011;389;48.710;9.392;2023-04-08T16:33:53;8.43;;;5.13;;
813;SDS011;389;48.710;9.392;2023-04-08T16:36:18;9.67;;;6.30;;
813;SDS011;389;48.710;9.392;2023-04-08T16:38:45;7.97;;;6.40;;
813;SDS011;389;48.710;9.392;2023-04-08T16:41:10;7.07;;;6.00;;
813;SDS011;389;48.710;9.392;2023-04-08T16:43:36;7.00;;;6.00;;
813;SDS011;389;48.710;9.392;2023-04-08T16:46:08;7.77;;;6.03;;
813;SDS011;389;48.710;9.392;2023-04-08T16:48:41;6.63;;;5.83;;
813;SDS011;389;48.710;9.392;2023-04-08T16:51:07;8.30;;;6.23;;
813;SDS011;389;48.710;9.392;2023-04-08T16:53:33;7.13;;;6.30;;
813;SDS011;389;48.710;9.392;2023-04-08T16:56:00;7.80;;;6.00;;
813;SDS011;389;48.710;9.392;2023-04-08T16:58:26;7.50;;;5.80;;
813;SDS011;389;48.710;9.392;2023-04-08T17:00:51;7.90;;;6.43;;
813;SDS011;389;48.710;9.392;2023-04-08T17:03:17;8.90;;;6.43;;
813;SDS011;389;48.710;9.392;2023-04-08T17:05:42;7.97;;;6.40;;
813;SDS011;389;48.710;9.392;2023-04-08T17:08:08;9.13;;;7.13;;
813;SDS011;389;48.710;9.392;2023-04-08T17:10:34;9.50;;;6.43;;
813;SDS011;389;48.710;9.392;2023-04-08T17:12:59;8.00;;;6.57;;
813;SDS011;389;48.710;9.392;2023-04-08T17:15:25;8.90;;;6.63;;
813;SDS011;389;48.710;9.392;2023-04-08T17:17:51;9.00;;;6.73;;
813;SDS011;389;48.710;9.392;2023-04-08T17:20:16;8.13;;;6.30;;
813;SDS011;389;48.710;9.392;2023-04-08T17:22:42;10.30;;;6.87;;
813;SDS011;389;48.710;9.392;2023-04-08T17:25:08;8.17;;;6.33;;
813;SDS011;389;48.710;9.392;2023-04-08T17:27:34;8.67;;;7.00;;
813;SDS011;389;48.710;9.392;2023-04-08T17:29:59;8.03;;;6.67;;
813;SDS011;389;48.710;9.392;2023-04-08T17:32:25;6.80;;;6.07;;
813;SDS011;389;48.710;9.392;2023-04-08T17:34:51;8.87;;;7.10;;